Weather at Greenville Spartanburg International Airport

Public forecast

Using degrees Fahrenheit for public forecast. Weather courtesy of forecast.io.

Current aviation weather report (METAR) for Greenville Spartanburg International Airport

Report is more than 6 hours old.

2022/11/14 14:53 (retrieved 2 years ago)

KGSP 141453Z 04009KT 10SM CLR 04/M03 A3038 RMK AO2 SLP290 T00441033 51013

Aviation forecast (TAF) for Greenville Spartanburg International Airport

Forecast is more than 12 hours old.

2023/02/22 18:39 (retrieved 1 year ago)

TAF KGSP 221736Z 2218/2318 22015G23KT P6SM BKN035 FM222200 21012G20KT P6SM SCT060 FM230200 21012G22KT P6SM SCT200 FM230800 22014G24KT P6SM BKN016